Time;durP1;ratioP1;P1;durP2;ratioP2;P2;SDS_P1;SDS_P2;PMS_P1;PMS_P2;Temp;Humidity;BMP_temperature;BMP_pressure;BME280_temperature;BME280_humidity;BME280_pressure;Samples;Min_cycle;Max_cycle;Signal;HPM_P1;HPM_P2
2023/02/11 00:01:21;;;;;;;;;;;;;;;;;;5143921;27;1190;-49
2023/02/11 00:03:48;;;;;;;;;;;;;;;;;;5164290;27;1337;-48
2023/02/11 00:06:15;;;;;;;;;;;;;;;;;;5175136;27;1392;-46
2023/02/11 00:08:44;;;;;;;;;;;;;;;;;;5166621;27;1210;-51
2023/02/11 00:11:13;;;;;;;;;;;;;;;;;;5139757;27;1184;-51
2023/02/11 00:13:41;;;;;;;;;;;;;;;;;;5168971;27;1251;-50
2023/02/11 00:16:09;;;;;;;;;;;;;;;;;;5173319;27;1939;-48
2023/02/11 00:18:37;;;;;;;;;;;;;;;;;;5140672;27;1196;-46
2023/02/11 00:21:07;;;;;;;;;;;;;;;;;;5158069;27;1026;-49
2023/02/11 00:23:35;;;;;;;;;;;;;;;;;;5172274;27;1357;-49
2023/02/11 00:26:02;;;;;;;;;;;;;;;;;;5160907;27;986;-49
2023/02/11 00:28:29;;;;;;;;;;;;;;;;;;5144187;27;1067;-48
2023/02/11 00:30:56;;;;;;;;;;;;;;;;;;5145847;27;1362;-49
2023/02/11 00:33:24;;;;;;;;;;;;;;;;;;5171374;27;1363;-51
2023/02/11 00:35:51;;;;;;;;;;;;;;;;;;5171221;27;1917;-51
2023/02/11 00:38:19;;;;;;;;;;;;;;;;;;5143766;27;1161;-47
2023/02/11 00:40:46;;;;;;;;;;;;;;;;;;5133017;27;1046;-47
2023/02/11 00:43:13;;;;;;;;;;;;;;;;;;5136406;27;903;-47
2023/02/11 00:45:46;;;;;;;;;;;;;;;;;;5141868;27;1202;-45
2023/02/11 00:48:15;;;;;;;;;;;;;;;;;;5173628;27;1163;-46
2023/02/11 00:50:42;;;;;;;;;;;;;;;;;;5145407;27;2180;-51
2023/02/11 00:53:09;;;;;;;;;;;;;;;;;;5153670;27;1150;-47
2023/02/11 00:55:37;;;;;;;;;;;;;;;;;;5151785;27;2320;-47
2023/02/11 00:58:05;;;;;;;;;;;;;;;;;;5160329;27;1101;-52
2023/02/11 01:00:32;;;;;;;;;;;;;;;;;;5172292;27;1239;-50
2023/02/11 01:02:59;;;;;;;;;;;;;;;;;;5160770;27;1284;-45
2023/02/11 01:05:27;;;;;;;;;;;;;;;;;;5166802;27;1165;-46
2023/02/11 01:07:54;;;;;;;;;;;;;;;;;;5118796;27;1115;-44
2023/02/11 01:10:22;;;;;;;;;;;;;;;;;;5133759;27;1098;-49
2023/02/11 01:12:51;;;;;;;;;;;;;;;;;;5164742;27;1011;-45
2023/02/11 01:15:19;;;;;;;;;;;;;;;;;;5149388;27;1404;-45
2023/02/11 01:17:46;;;;;;;;;;;;;;;;;;5133523;27;1917;-46
2023/02/11 01:20:21;;;;;;;;;;;;;;;;;;5137787;27;1084;-49
2023/02/11 01:22:49;;;;;;;;;;;;;;;;;;5153971;27;1156;-49
2023/02/11 01:25:16;;;;;;;;;;;;;;;;;;5159756;27;1151;-48
2023/02/11 01:27:43;;;;;;;;;;;;;;;;;;5167988;27;1219;-44
2023/02/11 01:30:11;;;;;;;;;;;;;;;;;;5132552;27;1007;-44
2023/02/11 01:32:39;;;;;;;;;;;;;;;;;;5134200;27;1427;-48
2023/02/11 01:35:08;;;;;;;;;;;;;;;;;;5135392;27;1395;-50
2023/02/11 01:37:36;;;;;;;;;;;;;;;;;;5172703;27;1934;-48
2023/02/11 01:40:04;;;;;;;;;;;;;;;;;;5154372;27;955;-45
2023/02/11 01:42:33;;;;;;;;;;;;;;;;;;5160730;27;1095;-47
2023/02/11 01:45:21;;;;;;;;;;;;;;;;;;5149394;27;1101;-47
2023/02/11 01:47:48;;;;;;;;;;;;;;;;;;5151893;27;1416;-47
2023/02/11 01:50:17;;;;;;;;;;;;;;;;;;5132094;27;1255;-49
2023/02/11 01:52:46;;;;;;;;;;;;;;;;;;5118780;27;1487;-52
2023/02/11 01:58:03;;;;;;;;;;;;;;;;;;5158306;27;1924;-50
2023/02/11 02:00:31;;;;;;;;;;;;;;;;;;5149984;27;1300;-45
2023/02/11 02:03:03;;;;;;;;;;;;;;;;;;5126311;27;1542;-53
2023/02/11 02:05:47;;;;;;;;;;;;;;;;;;5127640;27;1392;-49
2023/02/11 02:08:20;;;;;;;;;;;;;;;;;;5118622;27;1167;-48
2023/02/11 02:10:52;;;;;;;;;;;;;;;;;;5138216;27;1074;-45
2023/02/11 02:13:19;;;;;;;;;;;;;;;;;;5139617;27;1098;-54
2023/02/11 02:16:00;;;;;;;;;;;;;;;;;;5135813;27;1984;-49
2023/02/11 02:18:31;;;;;;;;;;;;;;;;;;5160162;27;1321;-50
2023/02/11 02:21:17;;;;;;;;;;;;;;;;;;5141714;27;1207;-49
2023/02/11 02:24:02;;;;;;;;;;;;;;;;;;5151183;27;1003;-46
2023/02/11 02:26:37;;;;;;;;;;;;;;;;;;5136491;27;1392;-50
2023/02/11 02:29:07;;;;;;;;;;;;;;;;;;5147209;27;1067;-51
2023/02/11 02:31:53;;;;;;;;;;;;;;;;;;5140401;27;1218;-46
2023/02/11 02:34:35;;;;;;;;;;;;;;;;;;5136717;27;1397;-49
2023/02/11 02:37:08;;;;;;;;;;;;;;;;;;5159767;27;1982;-52
2023/02/11 02:39:36;;;;;;;;;;;;;;;;;;5157695;27;1122;-52
2023/02/11 02:42:04;;;;;;;;;;;;;;;;;;5148336;27;1022;-47
2023/02/11 02:44:31;;;;;;;;;;;;;;;;;;5176718;27;1127;-49
2023/02/11 02:46:58;;;;;;;;;;;;;;;;;;5174283;27;953;-50
2023/02/11 02:49:25;;;;;;;;;;;;;;;;;;5146010;27;1147;-50
2023/02/11 02:51:59;;;;;;;;;;;;;;;;;;5174118;27;1035;-48
2023/02/11 02:54:45;;;;;;;;;;;;;;;;;;5146584;27;983;-49
2023/02/11 02:57:12;;;;;;;;;;;;;;;;;;5139365;27;1988;-46
2023/02/11 02:59:51;;;;;;;;;;;;;;;;;;5159250;27;1059;-51
2023/02/11 03:02:37;;;;;;;;;;;;;;;;;;5141359;27;1385;-49
2023/02/11 03:05:13;;;;;;;;;;;;;;;;;;5141699;27;1169;-46
2023/02/11 03:07:44;;;;;;;;;;;;;;;;;;5157020;27;1052;-49
2023/02/11 03:10:35;;;;;;;;;;;;;;;;;;5150513;27;1152;-50
2023/02/11 03:13:03;;;;;;;;;;;;;;;;;;5146207;27;1974;-49
2023/02/11 03:15:35;;;;;;;;;;;;;;;;;;5162163;27;924;-49
2023/02/11 03:18:03;;;;;;;;;;;;;;;;;;5118587;27;1918;-46
2023/02/11 03:20:31;;;;;;;;;;;;;;;;;;5155407;27;1028;-45
2023/02/11 03:23:06;;;;;;;;;;;;;;;;;;5160623;27;978;-53
2023/02/11 03:25:36;;;;;;;;;;;;;;;;;;5147041;27;1196;-50
2023/02/11 03:28:08;;;;;;;;;;;;;;;;;;5149134;27;992;-47
2023/02/11 03:30:42;;;;;;;;;;;;;;;;;;5148197;27;1069;-51
2023/02/11 03:33:17;;;;;;;;;;;;;;;;;;5153512;27;1085;-50
2023/02/11 03:35:49;;;;;;;;;;;;;;;;;;5142899;27;1348;-48
2023/02/11 03:38:20;;;;;;;;;;;;;;;;;;5149187;27;1911;-50
2023/02/11 03:40:49;;;;;;;;;;;;;;;;;;5134137;27;899;-44
2023/02/11 03:43:21;;;;;;;;;;;;;;;;;;5149834;27;967;-46
2023/02/11 03:45:51;;;;;;;;;;;;;;;;;;5151704;27;1190;-46
2023/02/11 03:48:24;;;;;;;;;;;;;;;;;;5136195;27;896;-41
2023/02/11 03:50:52;;;;;;;;;;;;;;;;;;5135269;27;1011;-47
2023/02/11 03:53:20;;;;;;;;;;;;;;;;;;5160233;27;980;-47
2023/02/11 03:55:48;;;;;;;;;;;;;;;;;;5134504;27;1106;-46
2023/02/11 03:58:16;;;;;;;;;;;;;;;;;;5167456;27;1980;-52
2023/02/11 04:00:43;;;;;;;;;;;;;;;;;;5152640;27;1008;-49
2023/02/11 04:03:11;;;;;;;;;;;;;;;;;;5144413;27;1418;-46
2023/02/11 04:05:39;;;;;;;;;;;;;;;;;;5133551;27;939;-50
2023/02/11 04:08:06;;;;;;;;;;;;;;;;;;5133603;27;1429;-51
2023/02/11 04:10:34;;;;;;;;;;;;;;;;;;5133687;27;1356;-47
2023/02/11 04:13:01;;;;;;;;;;;;;;;;;;5135544;27;979;-48
2023/02/11 04:15:28;;;;;;;;;;;;;;;;;;5115373;27;1024;-45
2023/02/11 04:17:55;;;;;;;;;;;;;;;;;;5136792;27;1970;-50
2023/02/11 04:20:22;;;;;;;;;;;;;;;;;;5132750;27;1263;-49
2023/02/11 04:22:49;;;;;;;;;;;;;;;;;;5115493;27;1139;-52
2023/02/11 04:25:16;;;;;;;;;;;;;;;;;;5152993;27;2054;-49
2023/02/11 04:27:44;;;;;;;;;;;;;;;;;;5151704;27;1090;-47
2023/02/11 04:30:14;;;;;;;;;;;;;;;;;;5141829;27;1006;-42
2023/02/11 04:32:41;;;;;;;;;;;;;;;;;;5146124;27;1056;-44
2023/02/11 04:35:08;;;;;;;;;;;;;;;;;;5133049;27;1379;-43
2023/02/11 04:37:35;;;;;;;;;;;;;;;;;;5133046;27;1941;-46
2023/02/11 04:40:05;;;;;;;;;;;;;;;;;;5133037;27;1398;-43
2023/02/11 04:42:33;;;;;;;;;;;;;;;;;;5133017;27;1125;-44
2023/02/11 04:45:00;;;;;;;;;;;;;;;;;;5132967;27;1197;-40
2023/02/11 04:47:27;;;;;;;;;;;;;;;;;;5133093;27;1213;-51
2023/02/11 04:49:55;;;;;;;;;;;;;;;;;;5132719;27;1023;-48
2023/02/11 04:52:22;;;;;;;;;;;;;;;;;;5148035;27;1380;-48
2023/02/11 04:54:49;;;;;;;;;;;;;;;;;;5153897;27;1127;-51
2023/02/11 04:57:16;;;;;;;;;;;;;;;;;;5153509;27;1911;-50
2023/02/11 04:59:43;;;;;;;;;;;;;;;;;;5153463;27;1137;-51
2023/02/11 05:02:11;;;;;;;;;;;;;;;;;;5153244;27;1414;-50
2023/02/11 05:04:38;;;;;;;;;;;;;;;;;;5153421;27;967;-48
2023/02/11 05:07:05;;;;;;;;;;;;;;;;;;5153274;27;1030;-51
2023/02/11 05:09:32;;;;;;;;;;;;;;;;;;5153459;27;1108;-49
2023/02/11 05:11:59;;;;;;;;;;;;;;;;;;5153353;27;950;-49
2023/02/11 05:14:26;;;;;;;;;;;;;;;;;;5153066;27;1026;-53
2023/02/11 05:16:53;;;;;;;;;;;;;;;;;;5153414;27;1917;-46
2023/02/11 05:19:21;;;;;;;;;;;;;;;;;;5153217;27;1006;-44
2023/02/11 05:21:48;;;;;;;;;;;;;;;;;;5153090;27;1268;-44
2023/02/11 05:24:28;;;;;;;;;;;;;;;;;;5153088;27;1256;-48
2023/02/11 05:26:55;;;;;;;;;;;;;;;;;;5153081;27;976;-43
2023/02/11 05:29:23;;;;;;;;;;;;;;;;;;5153078;27;944;-48
2023/02/11 05:31:50;;;;;;;;;;;;;;;;;;5152969;27;1233;-43
2023/02/11 05:34:17;;;;;;;;;;;;;;;;;;5152857;27;1643;-47
2023/02/11 05:36:44;;;;;;;;;;;;;;;;;;5152784;27;1982;-48
2023/02/11 05:39:11;;;;;;;;;;;;;;;;;;5153014;27;1084;-52
2023/02/11 05:41:38;;;;;;;;;;;;;;;;;;5152829;27;1023;-51
2023/02/11 05:44:05;;;;;;;;;;;;;;;;;;5131728;27;9789;-51
2023/02/11 05:46:32;;;;;;;;;;;;;;;;;;5091407;28;1324;-48
2023/02/11 05:49:00;;;;;;;;;;;;;;;;;;5091290;28;1031;-49
2023/02/11 05:51:27;;;;;;;;;;;;;;;;;;5090050;28;1194;-47
2023/02/11 05:53:54;;;;;;;;;;;;;;;;;;5091178;28;1085;-46
2023/02/11 05:56:21;;;;;;;;;;;;;;;;;;5091216;28;1382;-47
2023/02/11 05:58:48;;;;;;;;;;;;;;;;;;5091148;28;1916;-54
2023/02/11 06:01:15;;;;;;;;;;;;;;;;;;5091133;28;1237;-52
2023/02/11 06:03:43;;;;;;;;;;;;;;;;;;5076892;28;1359;-52
2023/02/11 06:06:12;;;;;;;;;;;;;;;;;;5086997;28;1261;-51
2023/02/11 06:08:40;;;;;;;;;;;;;;;;;;5090782;28;944;-47
2023/02/11 06:11:07;;;;;;;;;;;;;;;;;;5091137;28;1209;-50
2023/02/11 06:13:35;;;;;;;;;;;;;;;;;;5086810;28;924;-45
2023/02/11 06:16:02;;;;;;;;;;;;;;;;;;5082657;28;1410;-48
2023/02/11 06:18:32;;;;;;;;;;;;;;;;;;5087092;28;1921;-48
2023/02/11 06:20:59;;;;;;;;;;;;;;;;;;5069276;28;1316;-44
2023/02/11 06:23:27;;;;;;;;;;;;;;;;;;5070777;28;979;-46
2023/02/11 06:26:00;;;;;;;;;;;;;;;;;;5077607;28;1237;-49
2023/02/11 06:28:30;;;;;;;;;;;;;;;;;;5077206;28;1442;-44
2023/02/11 06:30:58;;;;;;;;;;;;;;;;;;5090044;28;1386;-52
2023/02/11 06:33:25;;;;;;;;;;;;;;;;;;5084039;28;1032;-47
2023/02/11 06:35:52;;;;;;;;;;;;;;;;;;5089435;28;1179;-50
2023/02/11 06:38:19;;;;;;;;;;;;;;;;;;5083733;28;1973;-49
2023/02/11 06:40:48;;;;;;;;;;;;;;;;;;5082245;28;1010;-46
2023/02/11 06:43:15;;;;;;;;;;;;;;;;;;5082623;28;1032;-47
2023/02/11 06:45:43;;;;;;;;;;;;;;;;;;5077667;28;1068;-48
2023/02/11 06:48:10;;;;;;;;;;;;;;;;;;5089937;28;1211;-45
2023/02/11 06:50:37;;;;;;;;;;;;;;;;;;5091357;28;977;-50
2023/02/11 06:53:04;;;;;;;;;;;;;;;;;;5092040;28;1083;-53
2023/02/11 06:55:33;;;;;;;;;;;;;;;;;;5079584;28;1046;-41
2023/02/11 06:58:00;;;;;;;;;;;;;;;;;;5083216;28;1976;-45
2023/02/11 07:00:28;;;;;;;;;;;;;;;;;;5077472;28;1509;-50
2023/02/11 07:02:55;;;;;;;;;;;;;;;;;;5085770;28;1348;-49
2023/02/11 07:05:23;;;;;;;;;;;;;;;;;;5074481;28;1154;-49
2023/02/11 07:07:50;;;;;;;;;;;;;;;;;;5080207;28;955;-53
2023/02/11 07:10:17;;;;;;;;;;;;;;;;;;5082951;28;1289;-51
2023/02/11 07:12:44;;;;;;;;;;;;;;;;;;5093304;28;1092;-47
2023/02/11 07:15:12;;;;;;;;;;;;;;;;;;5078227;28;1067;-50
2023/02/11 07:17:39;;;;;;;;;;;;;;;;;;5090490;28;1976;-51
2023/02/11 07:20:06;;;;;;;;;;;;;;;;;;5079865;28;1176;-46
2023/02/11 07:22:40;;;;;;;;;;;;;;;;;;5076584;28;1088;-43
2023/02/11 07:25:23;;;;;;;;;;;;;;;;;;5085948;28;1338;-48
2023/02/11 07:27:50;;;;;;;;;;;;;;;;;;5093546;28;1090;-48
2023/02/11 07:30:18;;;;;;;;;;;;;;;;;;5093547;28;1081;-51
2023/02/11 07:32:45;;;;;;;;;;;;;;;;;;5093500;28;1027;-45
2023/02/11 07:35:13;;;;;;;;;;;;;;;;;;5093461;28;1430;-46
2023/02/11 07:37:40;;;;;;;;;;;;;;;;;;5093394;28;1973;-46
2023/02/11 07:40:10;;;;;;;;;;;;;;;;;;5093315;28;1590;-42
2023/02/11 07:42:39;;;;;;;;;;;;;;;;;;5093227;28;990;-47
2023/02/11 07:45:07;;;;;;;;;;;;;;;;;;5093369;28;1401;-51
2023/02/11 07:47:34;;;;;;;;;;;;;;;;;;5093444;28;1230;-41
2023/02/11 07:50:01;;;;;;;;;;;;;;;;;;5092110;28;1040;-51
2023/02/11 07:52:29;;;;;;;;;;;;;;;;;;5093132;28;1192;-45
2023/02/11 07:54:56;;;;;;;;;;;;;;;;;;5091324;28;1240;-51
2023/02/11 07:57:23;;;;;;;;;;;;;;;;;;5091121;28;1909;-47
2023/02/11 07:59:51;;;;;;;;;;;;;;;;;;5071602;28;1150;-48
2023/02/11 08:02:19;;;;;;;;;;;;;;;;;;5087781;28;1501;-50
2023/02/11 08:04:46;;;;;;;;;;;;;;;;;;5078578;28;900;-45
2023/02/11 08:07:14;;;;;;;;;;;;;;;;;;5090134;28;1375;-49
2023/02/11 08:09:41;;;;;;;;;;;;;;;;;;5071816;28;1200;-48
2023/02/11 08:12:08;;;;;;;;;;;;;;;;;;5084018;28;1188;-46
2023/02/11 08:14:36;;;;;;;;;;;;;;;;;;5077900;28;932;-49
2023/02/11 08:17:03;;;;;;;;;;;;;;;;;;5080843;28;1049;-49
2023/02/11 08:19:30;;;;;;;;;;;;;;;;;;5086352;28;1912;-45
2023/02/11 08:22:00;;;;;;;;;;;;;;;;;;5078256;28;1384;-47
2023/02/11 08:24:27;;;;;;;;;;;;;;;;;;5081432;28;1058;-46
2023/02/11 08:26:55;;;;;;;;;;;;;;;;;;5082320;28;1091;-48
2023/02/11 08:29:22;;;;;;;;;;;;;;;;;;5077700;28;963;-45
2023/02/11 08:31:49;;;;;;;;;;;;;;;;;;5082693;28;962;-48
2023/02/11 08:34:18;;;;;;;;;;;;;;;;;;5072147;28;1461;-44
2023/02/11 08:36:56;;;;;;;;;;;;;;;;;;5087106;28;1363;-45
2023/02/11 08:39:38;;;;;;;;;;;;;;;;;;5080183;28;1930;-48
2023/02/11 08:42:14;;;;;;;;;;;;;;;;;;5075974;28;1378;-44
2023/02/11 08:44:46;;;;;;;;;;;;;;;;;;5077038;28;1095;-45
2023/02/11 08:47:13;;;;;;;;;;;;;;;;;;5083605;28;1010;-51
2023/02/11 08:49:43;;;;;;;;;;;;;;;;;;5078416;28;1087;-49
2023/02/11 08:52:10;;;;;;;;;;;;;;;;;;5080281;28;960;-47
2023/02/11 08:54:38;;;;;;;;;;;;;;;;;;5082855;28;1066;-49
2023/02/11 08:57:05;;;;;;;;;;;;;;;;;;5083411;28;892;-52
2023/02/11 08:59:32;;;;;;;;;;;;;;;;;;5077969;28;1973;-50
2023/02/11 09:01:59;;;;;;;;;;;;;;;;;;5079203;28;1279;-43
2023/02/11 09:04:26;;;;;;;;;;;;;;;;;;5076965;28;1158;-52
2023/02/11 09:06:54;;;;;;;;;;;;;;;;;;5083052;28;991;-45
2023/02/11 09:09:21;;;;;;;;;;;;;;;;;;5082252;28;1293;-41
2023/02/11 09:11:48;;;;;;;;;;;;;;;;;;5071943;28;1078;-47
2023/02/11 09:14:19;;;;;;;;;;;;;;;;;;5088793;28;1343;-42
2023/02/11 09:16:50;;;;;;;;;;;;;;;;;;5091167;28;1066;-46
2023/02/11 09:19:20;;;;;;;;;;;;;;;;;;5082865;28;1977;-46
2023/02/11 09:21:47;;;;;;;;;;;;;;;;;;5084494;28;1144;-49
2023/02/11 09:24:14;;;;;;;;;;;;;;;;;;5085735;28;1347;-42
2023/02/11 09:26:42;;;;;;;;;;;;;;;;;;5075319;28;1130;-47
2023/02/11 09:29:09;;;;;;;;;;;;;;;;;;5085722;28;1385;-45
2023/02/11 09:31:36;;;;;;;;;;;;;;;;;;5081050;28;1161;-52
2023/02/11 09:34:04;;;;;;;;;;;;;;;;;;5073719;28;1265;-49
2023/02/11 09:36:36;;;;;;;;;;;;;;;;;;5081579;28;1300;-50
2023/02/11 09:39:04;;;;;;;;;;;;;;;;;;5077266;28;1913;-52
2023/02/11 09:41:36;;;;;;;;;;;;;;;;;;5071833;28;1077;-48
2023/02/11 09:44:05;;;;;;;;;;;;;;;;;;5077267;28;1136;-53
2023/02/11 09:46:37;;;;;;;;;;;;;;;;;;5091024;28;1069;-50
2023/02/11 09:49:05;;;;;;;;;;;;;;;;;;5077978;28;1082;-50
2023/02/11 09:51:38;;;;;;;;;;;;;;;;;;5070970;28;1023;-46
2023/02/11 09:54:18;;;;;;;;;;;;;;;;;;5073916;28;1232;-50
2023/02/11 09:56:45;;;;;;;;;;;;;;;;;;5091153;28;1373;-45
2023/02/11 09:59:16;;;;;;;;;;;;;;;;;;5076195;28;1910;-42
2023/02/11 10:01:46;;;;;;;;;;;;;;;;;;5070818;28;1141;-46
2023/02/11 10:04:35;;;;;;;;;;;;;;;;;;5078739;28;1341;-46
2023/02/11 10:07:38;;;;;;;;;;;;;;;;;;5071463;28;1287;-51
2023/02/11 10:10:18;;;;;;;;;;;;;;;;;;5048296;28;1286;-53
2023/02/11 10:13:01;;;;;;;;;;;;;;;;;;5070732;28;1241;-49
2023/02/11 10:15:52;;;;;;;;;;;;;;;;;;5088990;28;1146;-49
2023/02/11 10:18:28;;;;;;;;;;;;;;;;;;5070313;28;2134;-44
2023/02/11 10:21:09;;;;;;;;;;;;;;;;;;5071082;28;980;-46
2023/02/11 10:23:39;;;;;;;;;;;;;;;;;;5074484;28;918;-47
2023/02/11 10:26:17;;;;;;;;;;;;;;;;;;5074660;28;1372;-49
2023/02/11 10:28:45;;;;;;;;;;;;;;;;;;5074652;28;1071;-47
2023/02/11 10:31:18;;;;;;;;;;;;;;;;;;5074563;28;1008;-43
2023/02/11 10:33:59;;;;;;;;;;;;;;;;;;5074147;28;1042;-45
2023/02/11 10:36:31;;;;;;;;;;;;;;;;;;5074208;28;1068;-48
2023/02/11 10:38:59;;;;;;;;;;;;;;;;;;5092512;28;1975;-45
2023/02/11 10:41:36;;;;;;;;;;;;;;;;;;5093545;28;894;-43
2023/02/11 10:44:05;;;;;;;;;;;;;;;;;;5094439;28;1200;-47
2023/02/11 10:46:35;;;;;;;;;;;;;;;;;;5089003;28;1118;-49
2023/02/11 10:49:02;;;;;;;;;;;;;;;;;;5089556;28;1178;-49
2023/02/11 10:51:32;;;;;;;;;;;;;;;;;;5074182;28;1372;-47
2023/02/11 10:54:03;;;;;;;;;;;;;;;;;;5073824;28;1138;-48
2023/02/11 10:56:33;;;;;;;;;;;;;;;;;;5074011;28;1428;-49
2023/02/11 10:59:03;;;;;;;;;;;;;;;;;;5073732;28;1906;-49
2023/02/11 11:01:49;;;;;;;;;;;;;;;;;;5072880;28;1082;-49
2023/02/11 11:04:29;;;;;;;;;;;;;;;;;;5092687;28;1348;-41
2023/02/11 11:07:17;;;;;;;;;;;;;;;;;;5094039;28;989;-49
2023/02/11 11:09:47;;;;;;;;;;;;;;;;;;5080481;28;1087;-50
2023/02/11 11:12:38;;;;;;;;;;;;;;;;;;5073846;28;1377;-52
2023/02/11 11:15:34;;;;;;;;;;;;;;;;;;5073405;28;1068;-51
2023/02/11 11:18:08;;;;;;;;;;;;;;;;;;5071827;28;1407;-46
2023/02/11 11:21:13;;;;;;;;;;;;;;;;;;5081181;28;1017;-47
2023/02/11 11:23:46;;;;;;;;;;;;;;;;;;5077960;28;1139;-49
2023/02/11 11:26:14;;;;;;;;;;;;;;;;;;5081083;28;1264;-44
2023/02/11 11:28:49;;;;;;;;;;;;;;;;;;5092193;28;1177;-48
2023/02/11 11:31:18;;;;;;;;;;;;;;;;;;5091827;28;2637;-46
2023/02/11 11:33:46;;;;;;;;;;;;;;;;;;5073585;28;1243;-46
2023/02/11 11:36:18;;;;;;;;;;;;;;;;;;5073328;28;1183;-46
2023/02/11 11:38:54;;;;;;;;;;;;;;;;;;5073259;28;1900;-47
2023/02/11 11:41:26;;;;;;;;;;;;;;;;;;5073117;28;959;-48
2023/02/11 11:43:54;;;;;;;;;;;;;;;;;;5079359;28;984;-49
2023/02/11 11:46:32;;;;;;;;;;;;;;;;;;5093377;28;971;-46
2023/02/11 11:49:11;;;;;;;;;;;;;;;;;;5093076;28;1152;-45
2023/02/11 11:51:40;;;;;;;;;;;;;;;;;;5081575;28;1019;-52
2023/02/11 11:54:11;;;;;;;;;;;;;;;;;;5081955;28;1336;-51
2023/02/11 11:56:46;;;;;;;;;;;;;;;;;;5093060;28;1034;-48
2023/02/11 11:59:15;;;;;;;;;;;;;;;;;;5073026;28;1908;-45
2023/02/11 12:01:48;;;;;;;;;;;;;;;;;;5089328;28;1310;-48
2023/02/11 12:04:27;;;;;;;;;;;;;;;;;;5074243;28;1241;-48
2023/02/11 12:07:16;;;;;;;;;;;;;;;;;;5088331;28;1386;-46
2023/02/11 12:09:49;;;;;;;;;;;;;;;;;;5091991;28;1163;-48
2023/02/11 12:12:25;;;;;;;;;;;;;;;;;;5072738;28;1088;-48
2023/02/11 12:15:03;;;;;;;;;;;;;;;;;;5072614;28;1099;-46
2023/02/11 12:17:49;;;;;;;;;;;;;;;;;;5072419;28;916;-47
2023/02/11 12:20:26;;;;;;;;;;;;;;;;;;5072403;28;1961;-51
2023/02/11 12:23:02;;;;;;;;;;;;;;;;;;5072353;28;1021;-45
2023/02/11 12:25:48;;;;;;;;;;;;;;;;;;5072275;28;912;-46
2023/02/11 12:28:30;;;;;;;;;;;;;;;;;;5072178;28;1397;-44
2023/02/11 12:31:15;;;;;;;;;;;;;;;;;;5072141;28;971;-46
2023/02/11 12:33:51;;;;;;;;;;;;;;;;;;5072013;28;1395;-50
2023/02/11 12:36:19;;;;;;;;;;;;;;;;;;5072217;28;1000;-48
2023/02/11 12:38:57;;;;;;;;;;;;;;;;;;5071979;28;1968;-48
2023/02/11 12:44:24;;;;;;;;;;;;;;;;;;5072162;28;1049;-49
2023/02/11 12:47:01;;;;;;;;;;;;;;;;;;5072101;28;1142;-47
2023/02/11 12:49:51;;;;;;;;;;;;;;;;;;5071853;28;918;-47
2023/02/11 12:52:22;;;;;;;;;;;;;;;;;;5091617;28;927;-50
2023/02/11 12:55:03;;;;;;;;;;;;;;;;;;5087178;28;941;-49
2023/02/11 12:57:32;;;;;;;;;;;;;;;;;;5071757;28;1093;-49
2023/02/11 12:59:59;;;;;;;;;;;;;;;;;;5082939;28;1919;-46
2023/02/11 13:02:45;;;;;;;;;;;;;;;;;;5088474;28;1363;-47
2023/02/11 13:05:24;;;;;;;;;;;;;;;;;;5071551;28;1031;-48
2023/02/11 13:07:54;;;;;;;;;;;;;;;;;;5071043;28;979;-45
2023/02/11 13:10:24;;;;;;;;;;;;;;;;;;5071838;28;940;-48
2023/02/11 13:15:40;;;;;;;;;;;;;;;;;;5071707;28;953;-48
2023/02/11 13:18:13;;;;;;;;;;;;;;;;;;5071393;28;1163;-42
2023/02/11 13:20:43;;;;;;;;;;;;;;;;;;5075294;28;1906;-41
2023/02/11 13:23:31;;;;;;;;;;;;;;;;;;5090302;28;1375;-49
2023/02/11 13:26:11;;;;;;;;;;;;;;;;;;5087269;28;1658;-48
2023/02/11 13:28:43;;;;;;;;;;;;;;;;;;5091602;28;1076;-48
2023/02/11 13:31:12;;;;;;;;;;;;;;;;;;5091337;28;1163;-44
2023/02/11 13:33:43;;;;;;;;;;;;;;;;;;5072059;28;1424;-47
2023/02/11 13:36:12;;;;;;;;;;;;;;;;;;5071311;28;1003;-43
2023/02/11 13:38:39;;;;;;;;;;;;;;;;;;5078551;28;1509;-48
2023/02/11 13:41:15;;;;;;;;;;;;;;;;;;5071240;28;1961;-46
2023/02/11 13:43:42;;;;;;;;;;;;;;;;;;5073840;28;1022;-45
2023/02/11 13:46:11;;;;;;;;;;;;;;;;;;5084172;28;1145;-44
2023/02/11 13:48:44;;;;;;;;;;;;;;;;;;5076455;28;1109;-48
2023/02/11 13:51:13;;;;;;;;;;;;;;;;;;5087474;28;1320;-50
2023/02/11 13:53:49;;;;;;;;;;;;;;;;;;5079079;28;1024;-45
2023/02/11 13:56:27;;;;;;;;;;;;;;;;;;5081254;28;1121;-48
2023/02/11 13:58:54;;;;;;;;;;;;;;;;;;5082600;28;1910;-47
2023/02/11 14:01:41;;;;;;;;;;;;;;;;;;5083624;28;924;-47
2023/02/11 14:10:36;;;;;;;;;;;;;;;;;;5079284;28;1096;-48
2023/02/11 14:13:22;;;;;;;;;;;;;;;;;;5079345;28;1172;-48
2023/02/11 14:16:01;;;;;;;;;;;;;;;;;;5084100;28;1434;-49
2023/02/11 14:18:36;;;;;;;;;;;;;;;;;;5084529;28;1247;-41
2023/02/11 14:21:10;;;;;;;;;;;;;;;;;;5078217;28;1905;-46
2023/02/11 14:23:38;;;;;;;;;;;;;;;;;;5078214;28;1107;-48
2023/02/11 14:26:25;;;;;;;;;;;;;;;;;;5090155;28;1141;-47
2023/02/11 14:28:52;;;;;;;;;;;;;;;;;;5056154;28;1281;-48
2023/02/11 14:31:25;;;;;;;;;;;;;;;;;;5082971;28;1048;-48
2023/02/11 14:34:01;;;;;;;;;;;;;;;;;;5082372;28;1296;-51
2023/02/11 14:36:50;;;;;;;;;;;;;;;;;;5086433;28;939;-50
2023/02/11 14:39:20;;;;;;;;;;;;;;;;;;5079397;28;1977;-49
2023/02/11 14:41:49;;;;;;;;;;;;;;;;;;5084691;28;975;-47
2023/02/11 14:44:18;;;;;;;;;;;;;;;;;;5083666;28;1026;-46
2023/02/11 14:46:46;;;;;;;;;;;;;;;;;;5085739;28;1132;-51
2023/02/11 14:49:24;;;;;;;;;;;;;;;;;;5076699;28;1361;-50
2023/02/11 14:51:52;;;;;;;;;;;;;;;;;;5087052;28;1123;-46
2023/02/11 14:54:24;;;;;;;;;;;;;;;;;;5081103;28;897;-46
2023/02/11 14:57:10;;;;;;;;;;;;;;;;;;5077916;28;1229;-45
2023/02/11 14:59:37;;;;;;;;;;;;;;;;;;5078372;28;1909;-43
2023/02/11 15:02:33;;;;;;;;;;;;;;;;;;5079975;28;1280;-49
2023/02/11 15:05:19;;;;;;;;;;;;;;;;;;5079011;28;1437;-50
2023/02/11 15:07:51;;;;;;;;;;;;;;;;;;5078299;28;1277;-48
2023/02/11 15:10:25;;;;;;;;;;;;;;;;;;5083967;28;1070;-51
2023/02/11 15:12:53;;;;;;;;;;;;;;;;;;5085649;28;1162;-47
2023/02/11 15:15:20;;;;;;;;;;;;;;;;;;5083556;28;1374;-51
2023/02/11 15:17:47;;;;;;;;;;;;;;;;;;5083983;28;1114;-47
2023/02/11 15:20:34;;;;;;;;;;;;;;;;;;5077322;28;1918;-48
2023/02/11 15:23:03;;;;;;;;;;;;;;;;;;5077732;28;1080;-47
2023/02/11 15:25:30;;;;;;;;;;;;;;;;;;5077702;28;1226;-50
2023/02/11 15:27:59;;;;;;;;;;;;;;;;;;5085989;28;964;-52
2023/02/11 15:30:29;;;;;;;;;;;;;;;;;;5082145;28;1079;-49
2023/02/11 15:33:01;;;;;;;;;;;;;;;;;;5079658;28;1272;-42
2023/02/11 15:35:35;;;;;;;;;;;;;;;;;;5087240;28;1310;-49
2023/02/11 15:38:03;;;;;;;;;;;;;;;;;;5078301;28;1259;-47
2023/02/11 15:40:31;;;;;;;;;;;;;;;;;;5090689;28;1929;-45
2023/02/11 15:43:00;;;;;;;;;;;;;;;;;;5091157;28;1002;-49
2023/02/11 15:45:36;;;;;;;;;;;;;;;;;;5079458;28;1172;-44
2023/02/11 15:48:08;;;;;;;;;;;;;;;;;;5076599;28;1218;-50
2023/02/11 15:50:36;;;;;;;;;;;;;;;;;;5090064;28;1156;-50
2023/02/11 15:53:14;;;;;;;;;;;;;;;;;;5079422;28;1012;-43
2023/02/11 15:55:42;;;;;;;;;;;;;;;;;;5077680;28;1356;-46
2023/02/11 15:58:09;;;;;;;;;;;;;;;;;;5088365;28;1016;-47
2023/02/11 16:00:44;;;;;;;;;;;;;;;;;;5075644;28;1908;-49
2023/02/11 16:03:21;;;;;;;;;;;;;;;;;;5091518;28;1254;-43
2023/02/11 16:05:48;;;;;;;;;;;;;;;;;;5077534;28;1045;-47
2023/02/11 16:08:20;;;;;;;;;;;;;;;;;;5080246;28;1325;-49
2023/02/11 16:11:08;;;;;;;;;;;;;;;;;;5077413;28;923;-45
2023/02/11 16:13:43;;;;;;;;;;;;;;;;;;5079149;28;1083;-41
2023/02/11 16:16:18;;;;;;;;;;;;;;;;;;5082451;28;1000;-45
2023/02/11 16:18:55;;;;;;;;;;;;;;;;;;5077938;28;995;-46
2023/02/11 16:21:37;;;;;;;;;;;;;;;;;;5084568;28;1971;-48
2023/02/11 16:24:07;;;;;;;;;;;;;;;;;;5085629;28;1072;-49
2023/02/11 16:26:42;;;;;;;;;;;;;;;;;;5073425;28;1078;-49
2023/02/11 16:29:14;;;;;;;;;;;;;;;;;;5081121;28;1062;-48
2023/02/11 16:31:42;;;;;;;;;;;;;;;;;;5081963;28;989;-49
2023/02/11 16:34:14;;;;;;;;;;;;;;;;;;5084812;28;1339;-48
2023/02/11 16:36:41;;;;;;;;;;;;;;;;;;5080258;28;1103;-46
2023/02/11 16:39:11;;;;;;;;;;;;;;;;;;5073911;28;1115;-48
2023/02/11 16:41:39;;;;;;;;;;;;;;;;;;5080146;28;1907;-46
2023/02/11 16:44:06;;;;;;;;;;;;;;;;;;5086170;28;921;-48
2023/02/11 16:46:35;;;;;;;;;;;;;;;;;;5079757;28;1081;-50
2023/02/11 16:49:10;;;;;;;;;;;;;;;;;;5090404;28;1166;-48
2023/02/11 16:51:38;;;;;;;;;;;;;;;;;;5076535;28;1227;-46
2023/02/11 16:54:05;;;;;;;;;;;;;;;;;;5075520;28;1033;-49
2023/02/11 16:56:32;;;;;;;;;;;;;;;;;;5078739;28;1020;-46
2023/02/11 16:59:00;;;;;;;;;;;;;;;;;;5078445;28;1311;-46
2023/02/11 17:01:27;;;;;;;;;;;;;;;;;;5071206;28;1979;-51
2023/02/11 17:03:54;;;;;;;;;;;;;;;;;;5085934;28;1330;-44
2023/02/11 17:06:22;;;;;;;;;;;;;;;;;;5077745;28;1234;-48
2023/02/11 17:08:49;;;;;;;;;;;;;;;;;;5080152;28;1056;-48
2023/02/11 17:11:16;;;;;;;;;;;;;;;;;;5079781;28;1028;-46
2023/02/11 17:13:44;;;;;;;;;;;;;;;;;;5088560;28;1112;-47
2023/02/11 17:16:29;;;;;;;;;;;;;;;;;;5077775;28;1068;-50
2023/02/11 17:18:59;;;;;;;;;;;;;;;;;;5083550;28;981;-47
2023/02/11 17:21:27;;;;;;;;;;;;;;;;;;5075195;28;1992;-48
2023/02/11 17:23:56;;;;;;;;;;;;;;;;;;5091396;28;1070;-51
2023/02/11 17:26:23;;;;;;;;;;;;;;;;;;5075720;28;905;-51
2023/02/11 17:28:50;;;;;;;;;;;;;;;;;;5079989;28;1056;-51
2023/02/11 17:31:17;;;;;;;;;;;;;;;;;;5090662;28;934;-49
2023/02/11 17:33:45;;;;;;;;;;;;;;;;;;5074138;28;1647;-47
2023/02/11 17:36:12;;;;;;;;;;;;;;;;;;5082489;28;932;-46
2023/02/11 17:38:39;;;;;;;;;;;;;;;;;;5079347;28;1015;-47
2023/02/11 17:41:06;;;;;;;;;;;;;;;;;;5081481;28;1970;-46
2023/02/11 17:43:33;;;;;;;;;;;;;;;;;;5082991;28;1042;-50
2023/02/11 17:46:04;;;;;;;;;;;;;;;;;;5091221;28;907;-47
2023/02/11 17:48:34;;;;;;;;;;;;;;;;;;5074238;28;933;-48